sensor_id;sensor_type;location;lat;lon;timestamp;temperature;humidity
6355;DHT22;3210;48.708;9.030;2023-07-31T00:01:54;12.90;1.00
6355;DHT22;3210;48.708;9.030;2023-07-31T00:04:22;12.90;1.00
6355;DHT22;3210;48.708;9.030;2023-07-31T00:06:49;12.80;1.00
6355;DHT22;3210;48.708;9.030;2023-07-31T00:09:15;12.90;1.00
6355;DHT22;3210;48.708;9.030;2023-07-31T00:11:42;12.90;1.00
6355;DHT22;3210;48.708;9.030;2023-07-31T00:14:09;13.00;1.00
6355;DHT22;3210;48.708;9.030;2023-07-31T00:16:36;12.90;1.00
6355;DHT22;3210;48.708;9.030;2023-07-31T00:19:03;12.70;1.00
6355;DHT22;3210;48.708;9.030;2023-07-31T00:21:31;12.80;1.00
6355;DHT22;3210;48.708;9.030;2023-07-31T00:23:57;12.80;1.00
6355;DHT22;3210;48.708;9.030;2023-07-31T00:26:24;12.80;9.20
6355;DHT22;3210;48.708;9.030;2023-07-31T00:28:51;12.90;1.00
6355;DHT22;3210;48.708;9.030;2023-07-31T00:31:18;12.90;1.00
6355;DHT22;3210;48.708;9.030;2023-07-31T00:33:44;12.80;1.00
6355;DHT22;3210;48.708;9.030;2023-07-31T00:36:11;12.90;1.00
6355;DHT22;3210;48.708;9.030;2023-07-31T00:38:39;12.80;20.90
6355;DHT22;3210;48.708;9.030;2023-07-31T00:41:06;12.90;51.90
6355;DHT22;3210;48.708;9.030;2023-07-31T00:43:33;12.90;1.00
6355;DHT22;3210;48.708;9.030;2023-07-31T00:46:00;12.80;1.00
6355;DHT22;3210;48.708;9.030;2023-07-31T00:48:26;12.70;1.00
6355;DHT22;3210;48.708;9.030;2023-07-31T00:50:53;12.60;8.30
6355;DHT22;3210;48.708;9.030;2023-07-31T00:53:20;12.50;22.60
6355;DHT22;3210;48.708;9.030;2023-07-31T00:55:48;12.60;90.80
6355;DHT22;3210;48.708;9.030;2023-07-31T00:58:15;12.60;99.90
6355;DHT22;3210;48.708;9.030;2023-07-31T01:00:42;12.70;5.20
6355;DHT22;3210;48.708;9.030;2023-07-31T01:03:09;13.00;1.00
6355;DHT22;3210;48.708;9.030;2023-07-31T01:05:42;12.90;1.00
6355;DHT22;3210;48.708;9.030;2023-07-31T01:08:18;12.90;1.00
6355;DHT22;3210;48.708;9.030;2023-07-31T01:10:54;12.90;1.00
6355;DHT22;3210;48.708;9.030;2023-07-31T01:13:21;12.90;1.00
6355;DHT22;3210;48.708;9.030;2023-07-31T01:15:48;12.70;43.50
6355;DHT22;3210;48.708;9.030;2023-07-31T01:18:15;12.60;78.20
6355;DHT22;3210;48.708;9.030;2023-07-31T01:20:42;12.60;39.20
6355;DHT22;3210;48.708;9.030;2023-07-31T01:26:18;12.50;97.60
6355;DHT22;3210;48.708;9.030;2023-07-31T01:28:55;12.40;99.90
6355;DHT22;3210;48.708;9.030;2023-07-31T01:31:24;12.30;99.90
6355;DHT22;3210;48.708;9.030;2023-07-31T01:33:53;12.40;99.90
6355;DHT22;3210;48.708;9.030;2023-07-31T01:36:21;12.30;99.90
6355;DHT22;3210;48.708;9.030;2023-07-31T01:38:48;12.30;99.90
6355;DHT22;3210;48.708;9.030;2023-07-31T01:41:18;12.40;99.90
6355;DHT22;3210;48.708;9.030;2023-07-31T01:43:45;12.40;99.90
6355;DHT22;3210;48.708;9.030;2023-07-31T01:46:11;12.40;99.90
6355;DHT22;3210;48.708;9.030;2023-07-31T01:48:38;12.40;99.90
6355;DHT22;3210;48.708;9.030;2023-07-31T01:51:05;12.40;99.90
6355;DHT22;3210;48.708;9.030;2023-07-31T01:53:32;12.50;99.90
6355;DHT22;3210;48.708;9.030;2023-07-31T01:55:59;12.50;99.90
6355;DHT22;3210;48.708;9.030;2023-07-31T01:58:27;12.50;99.90
6355;DHT22;3210;48.708;9.030;2023-07-31T02:00:54;12.50;99.90
6355;DHT22;3210;48.708;9.030;2023-07-31T02:03:23;12.50;99.90
6355;DHT22;3210;48.708;9.030;2023-07-31T02:05:50;12.50;99.90
6355;DHT22;3210;48.708;9.030;2023-07-31T02:08:17;12.40;99.90
6355;DHT22;3210;48.708;9.030;2023-07-31T02:10:44;12.50;99.90
6355;DHT22;3210;48.708;9.030;2023-07-31T02:13:10;12.60;99.90
6355;DHT22;3210;48.708;9.030;2023-07-31T02:15:39;12.50;99.90
6355;DHT22;3210;48.708;9.030;2023-07-31T02:18:05;12.50;99.90
6355;DHT22;3210;48.708;9.030;2023-07-31T02:20:34;12.40;99.90
6355;DHT22;3210;48.708;9.030;2023-07-31T02:23:00;12.40;99.90
6355;DHT22;3210;48.708;9.030;2023-07-31T02:25:27;12.40;99.90
6355;DHT22;3210;48.708;9.030;2023-07-31T02:27:54;12.40;99.90
6355;DHT22;3210;48.708;9.030;2023-07-31T02:30:21;12.40;99.90
6355;DHT22;3210;48.708;9.030;2023-07-31T02:32:49;12.40;99.90
6355;DHT22;3210;48.708;9.030;2023-07-31T02:35:17;12.50;99.90
6355;DHT22;3210;48.708;9.030;2023-07-31T02:37:44;12.50;99.90
6355;DHT22;3210;48.708;9.030;2023-07-31T02:40:11;12.50;99.90
6355;DHT22;3210;48.708;9.030;2023-07-31T02:42:38;12.50;99.90
6355;DHT22;3210;48.708;9.030;2023-07-31T02:45:06;12.50;99.90
6355;DHT22;3210;48.708;9.030;2023-07-31T02:47:33;12.30;99.90
6355;DHT22;3210;48.708;9.030;2023-07-31T02:50:01;12.30;99.90
6355;DHT22;3210;48.708;9.030;2023-07-31T02:52:28;12.20;99.90
6355;DHT22;3210;48.708;9.030;2023-07-31T02:54:55;12.20;99.90
6355;DHT22;3210;48.708;9.030;2023-07-31T02:57:22;12.20;99.90
6355;DHT22;3210;48.708;9.030;2023-07-31T02:59:48;12.20;99.90
6355;DHT22;3210;48.708;9.030;2023-07-31T03:02:15;12.30;99.90
6355;DHT22;3210;48.708;9.030;2023-07-31T03:04:42;12.50;99.90
6355;DHT22;3210;48.708;9.030;2023-07-31T03:07:10;12.70;43.30
6355;DHT22;3210;48.708;9.030;2023-07-31T03:09:40;12.80;1.00
6355;DHT22;3210;48.708;9.030;2023-07-31T03:12:09;13.00;1.00
6355;DHT22;3210;48.708;9.030;2023-07-31T03:14:36;13.20;99.90
6355;DHT22;3210;48.708;9.030;2023-07-31T03:17:03;13.40;99.90
6355;DHT22;3210;48.708;9.030;2023-07-31T03:19:31;13.30;1.00
6355;DHT22;3210;48.708;9.030;2023-07-31T03:21:58;13.40;99.90
6355;DHT22;3210;48.708;9.030;2023-07-31T03:24:26;13.40;99.90
6355;DHT22;3210;48.708;9.030;2023-07-31T03:26:54;13.50;99.90
6355;DHT22;3210;48.708;9.030;2023-07-31T03:29:21;13.60;99.90
6355;DHT22;3210;48.708;9.030;2023-07-31T03:31:48;13.70;99.90
6355;DHT22;3210;48.708;9.030;2023-07-31T03:34:15;13.80;99.90
6355;DHT22;3210;48.708;9.030;2023-07-31T03:36:41;13.80;99.90
6355;DHT22;3210;48.708;9.030;2023-07-31T03:39:08;13.90;99.90
6355;DHT22;3210;48.708;9.030;2023-07-31T03:41:36;14.00;99.90
6355;DHT22;3210;48.708;9.030;2023-07-31T03:44:03;14.00;99.90
6355;DHT22;3210;48.708;9.030;2023-07-31T03:46:30;14.00;99.90
6355;DHT22;3210;48.708;9.030;2023-07-31T03:48:57;14.10;93.40
6355;DHT22;3210;48.708;9.030;2023-07-31T03:51:24;14.10;86.00
6355;DHT22;3210;48.708;9.030;2023-07-31T03:53:50;14.20;83.00
6355;DHT22;3210;48.708;9.030;2023-07-31T03:56:17;14.10;63.90
6355;DHT22;3210;48.708;9.030;2023-07-31T03:58:45;14.10;63.50
6355;DHT22;3210;48.708;9.030;2023-07-31T04:01:12;14.20;71.50
6355;DHT22;3210;48.708;9.030;2023-07-31T04:03:39;14.30;46.60
6355;DHT22;3210;48.708;9.030;2023-07-31T04:06:06;14.30;74.20
6355;DHT22;3210;48.708;9.030;2023-07-31T04:08:33;14.20;68.40
6355;DHT22;3210;48.708;9.030;2023-07-31T04:11:00;14.30;43.90
6355;DHT22;3210;48.708;9.030;2023-07-31T04:13:26;14.40;31.50
6355;DHT22;3210;48.708;9.030;2023-07-31T04:15:56;14.40;40.20
6355;DHT22;3210;48.708;9.030;2023-07-31T04:18:25;14.40;44.40
6355;DHT22;3210;48.708;9.030;2023-07-31T04:20:51;14.40;39.60
6355;DHT22;3210;48.708;9.030;2023-07-31T04:23:18;14.50;18.50
6355;DHT22;3210;48.708;9.030;2023-07-31T04:25:45;14.50;30.50
6355;DHT22;3210;48.708;9.030;2023-07-31T04:28:12;14.50;34.70
6355;DHT22;3210;48.708;9.030;2023-07-31T04:30:39;14.50;37.20
6355;DHT22;3210;48.708;9.030;2023-07-31T04:33:07;14.50;29.70
6355;DHT22;3210;48.708;9.030;2023-07-31T04:35:34;14.60;14.30
6355;DHT22;3210;48.708;9.030;2023-07-31T04:38:01;14.60;21.90
6355;DHT22;3210;48.708;9.030;2023-07-31T04:40:27;14.60;15.00
6355;DHT22;3210;48.708;9.030;2023-07-31T04:42:54;14.60;22.50
6355;DHT22;3210;48.708;9.030;2023-07-31T04:45:21;14.70;6.50
6355;DHT22;3210;48.708;9.030;2023-07-31T04:47:48;14.70;1.10
6355;DHT22;3210;48.708;9.030;2023-07-31T04:50:16;14.90;1.00
6355;DHT22;3210;48.708;9.030;2023-07-31T04:52:43;14.90;1.00
6355;DHT22;3210;48.708;9.030;2023-07-31T04:55:10;14.90;1.00
6355;DHT22;3210;48.708;9.030;2023-07-31T04:57:36;14.90;1.00
6355;DHT22;3210;48.708;9.030;2023-07-31T05:00:04;14.90;1.00
6355;DHT22;3210;48.708;9.030;2023-07-31T05:02:31;14.90;1.00
6355;DHT22;3210;48.708;9.030;2023-07-31T05:04:57;14.90;1.00
6355;DHT22;3210;48.708;9.030;2023-07-31T05:07:25;15.00;1.00
6355;DHT22;3210;48.708;9.030;2023-07-31T05:09:52;15.10;1.00
6355;DHT22;3210;48.708;9.030;2023-07-31T05:12:19;15.20;1.00
6355;DHT22;3210;48.708;9.030;2023-07-31T05:14:46;15.20;1.00
6355;DHT22;3210;48.708;9.030;2023-07-31T05:17:12;15.20;1.00
6355;DHT22;3210;48.708;9.030;2023-07-31T05:19:39;15.20;1.00
6355;DHT22;3210;48.708;9.030;2023-07-31T05:22:06;15.30;1.00
6355;DHT22;3210;48.708;9.030;2023-07-31T05:24:34;15.30;1.00
6355;DHT22;3210;48.708;9.030;2023-07-31T05:27:01;15.50;1.00
6355;DHT22;3210;48.708;9.030;2023-07-31T05:29:28;15.50;1.00
6355;DHT22;3210;48.708;9.030;2023-07-31T05:31:54;15.60;1.00
6355;DHT22;3210;48.708;9.030;2023-07-31T05:34:21;15.70;1.00
6355;DHT22;3210;48.708;9.030;2023-07-31T05:36:48;15.70;1.00
6355;DHT22;3210;48.708;9.030;2023-07-31T05:39:15;15.80;1.00
6355;DHT22;3210;48.708;9.030;2023-07-31T05:41:43;15.90;1.00
6355;DHT22;3210;48.708;9.030;2023-07-31T05:44:09;15.90;1.00
6355;DHT22;3210;48.708;9.030;2023-07-31T05:46:36;16.00;1.00
6355;DHT22;3210;48.708;9.030;2023-07-31T05:49:03;16.10;1.00
6355;DHT22;3210;48.708;9.030;2023-07-31T05:51:30;16.20;1.00
6355;DHT22;3210;48.708;9.030;2023-07-31T05:53:56;16.30;1.00
6355;DHT22;3210;48.708;9.030;2023-07-31T05:56:23;16.40;1.00
6355;DHT22;3210;48.708;9.030;2023-07-31T05:58:53;16.50;1.00
6355;DHT22;3210;48.708;9.030;2023-07-31T06:01:20;16.60;1.00
6355;DHT22;3210;48.708;9.030;2023-07-31T06:03:47;16.70;1.00
6355;DHT22;3210;48.708;9.030;2023-07-31T06:06:14;16.80;1.00
6355;DHT22;3210;48.708;9.030;2023-07-31T06:08:40;16.80;1.00
6355;DHT22;3210;48.708;9.030;2023-07-31T06:11:07;16.80;1.00
6355;DHT22;3210;48.708;9.030;2023-07-31T06:13:34;16.80;1.00
6355;DHT22;3210;48.708;9.030;2023-07-31T06:16:03;16.80;1.00
6355;DHT22;3210;48.708;9.030;2023-07-31T06:18:31;16.80;1.00
6355;DHT22;3210;48.708;9.030;2023-07-31T06:20:57;16.90;1.00
6355;DHT22;3210;48.708;9.030;2023-07-31T06:23:24;16.90;1.00
6355;DHT22;3210;48.708;9.030;2023-07-31T06:25:51;17.10;1.00
6355;DHT22;3210;48.708;9.030;2023-07-31T06:28:18;17.20;1.00
6355;DHT22;3210;48.708;9.030;2023-07-31T06:30:44;17.30;1.00
6355;DHT22;3210;48.708;9.030;2023-07-31T06:33:12;17.40;1.00
6355;DHT22;3210;48.708;9.030;2023-07-31T06:35:39;17.40;1.00
6355;DHT22;3210;48.708;9.030;2023-07-31T06:38:06;17.40;1.00
6355;DHT22;3210;48.708;9.030;2023-07-31T06:40:33;17.60;1.00
6355;DHT22;3210;48.708;9.030;2023-07-31T06:43:00;17.90;1.00
6355;DHT22;3210;48.708;9.030;2023-07-31T06:45:32;18.00;1.00
6355;DHT22;3210;48.708;9.030;2023-07-31T06:47:58;18.10;1.00
6355;DHT22;3210;48.708;9.030;2023-07-31T06:50:28;18.30;1.00
6355;DHT22;3210;48.708;9.030;2023-07-31T06:52:55;18.40;1.00
6355;DHT22;3210;48.708;9.030;2023-07-31T06:55:22;18.50;1.00
6355;DHT22;3210;48.708;9.030;2023-07-31T06:57:51;18.60;1.00
6355;DHT22;3210;48.708;9.030;2023-07-31T07:00:20;18.60;1.00
6355;DHT22;3210;48.708;9.030;2023-07-31T07:02:47;18.60;1.00
6355;DHT22;3210;48.708;9.030;2023-07-31T07:05:15;18.60;1.00
6355;DHT22;3210;48.708;9.030;2023-07-31T07:07:44;18.80;1.00
6355;DHT22;3210;48.708;9.030;2023-07-31T07:10:11;19.00;1.00
6355;DHT22;3210;48.708;9.030;2023-07-31T07:12:38;19.10;1.00
6355;DHT22;3210;48.708;9.030;2023-07-31T07:15:05;19.10;1.00
6355;DHT22;3210;48.708;9.030;2023-07-31T07:17:32;19.30;1.00
6355;DHT22;3210;48.708;9.030;2023-07-31T07:19:59;19.10;1.00
6355;DHT22;3210;48.708;9.030;2023-07-31T07:22:26;19.20;1.00
6355;DHT22;3210;48.708;9.030;2023-07-31T07:24:55;19.20;1.00
6355;DHT22;3210;48.708;9.030;2023-07-31T07:27:21;19.30;1.00
6355;DHT22;3210;48.708;9.030;2023-07-31T07:29:50;19.20;1.00
6355;DHT22;3210;48.708;9.030;2023-07-31T07:32:17;19.30;1.00
6355;DHT22;3210;48.708;9.030;2023-07-31T07:34:44;19.40;1.00
6355;DHT22;3210;48.708;9.030;2023-07-31T07:37:11;19.40;1.00
6355;DHT22;3210;48.708;9.030;2023-07-31T07:39:38;19.40;1.00
6355;DHT22;3210;48.708;9.030;2023-07-31T07:42:06;19.40;1.00
6355;DHT22;3210;48.708;9.030;2023-07-31T07:44:33;19.50;1.00
6355;DHT22;3210;48.708;9.030;2023-07-31T07:47:00;19.60;1.00
6355;DHT22;3210;48.708;9.030;2023-07-31T07:49:27;19.70;1.00
6355;DHT22;3210;48.708;9.030;2023-07-31T07:51:53;19.90;1.00
6355;DHT22;3210;48.708;9.030;2023-07-31T07:54:20;20.00;1.00
6355;DHT22;3210;48.708;9.030;2023-07-31T07:56:47;20.10;1.00
6355;DHT22;3210;48.708;9.030;2023-07-31T07:59:16;20.40;1.00
6355;DHT22;3210;48.708;9.030;2023-07-31T08:01:43;20.50;1.00
6355;DHT22;3210;48.708;9.030;2023-07-31T08:04:10;20.70;1.00
6355;DHT22;3210;48.708;9.030;2023-07-31T08:06:36;20.70;1.00
6355;DHT22;3210;48.708;9.030;2023-07-31T08:09:03;20.70;1.00
6355;DHT22;3210;48.708;9.030;2023-07-31T08:11:31;20.70;1.00
6355;DHT22;3210;48.708;9.030;2023-07-31T08:13:58;20.80;1.00
6355;DHT22;3210;48.708;9.030;2023-07-31T08:16:27;20.80;1.00
6355;DHT22;3210;48.708;9.030;2023-07-31T08:18:53;20.70;1.00
6355;DHT22;3210;48.708;9.030;2023-07-31T08:21:21;20.80;1.00
6355;DHT22;3210;48.708;9.030;2023-07-31T08:23:48;21.00;1.00
6355;DHT22;3210;48.708;9.030;2023-07-31T08:26:15;21.20;1.00
6355;DHT22;3210;48.708;9.030;2023-07-31T08:28:42;21.50;1.00
6355;DHT22;3210;48.708;9.030;2023-07-31T08:31:09;21.70;1.00
6355;DHT22;3210;48.708;9.030;2023-07-31T08:33:37;22.10;1.00
6355;DHT22;3210;48.708;9.030;2023-07-31T08:36:05;22.10;1.00
6355;DHT22;3210;48.708;9.030;2023-07-31T08:38:32;21.90;1.00
6355;DHT22;3210;48.708;9.030;2023-07-31T08:40:59;21.70;1.00
6355;DHT22;3210;48.708;9.030;2023-07-31T08:43:26;21.70;1.00
6355;DHT22;3210;48.708;9.030;2023-07-31T08:45:53;21.80;1.00
6355;DHT22;3210;48.708;9.030;2023-07-31T08:48:22;21.70;1.00
6355;DHT22;3210;48.708;9.030;2023-07-31T08:50:51;21.60;1.00
6355;DHT22;3210;48.708;9.030;2023-07-31T08:53:18;21.60;1.00
6355;DHT22;3210;48.708;9.030;2023-07-31T08:55:45;21.60;1.00
6355;DHT22;3210;48.708;9.030;2023-07-31T08:58:13;21.50;1.00
6355;DHT22;3210;48.708;9.030;2023-07-31T09:00:41;21.40;1.00
6355;DHT22;3210;48.708;9.030;2023-07-31T09:03:12;21.20;1.00
6355;DHT22;3210;48.708;9.030;2023-07-31T09:05:42;21.20;1.00
6355;DHT22;3210;48.708;9.030;2023-07-31T09:08:11;21.10;1.00
6355;DHT22;3210;48.708;9.030;2023-07-31T09:10:40;21.00;1.00
6355;DHT22;3210;48.708;9.030;2023-07-31T09:13:08;21.00;1.00
6355;DHT22;3210;48.708;9.030;2023-07-31T09:15:35;21.00;1.00
6355;DHT22;3210;48.708;9.030;2023-07-31T09:18:03;21.00;1.00
6355;DHT22;3210;48.708;9.030;2023-07-31T09:20:30;20.90;1.00
6355;DHT22;3210;48.708;9.030;2023-07-31T09:23:05;21.10;1.00
6355;DHT22;3210;48.708;9.030;2023-07-31T09:25:34;21.50;1.00
6355;DHT22;3210;48.708;9.030;2023-07-31T09:28:02;21.80;1.00
6355;DHT22;3210;48.708;9.030;2023-07-31T09:30:29;21.70;1.00
6355;DHT22;3210;48.708;9.030;2023-07-31T09:33:01;21.80;1.00
6355;DHT22;3210;48.708;9.030;2023-07-31T09:35:29;21.80;1.00
6355;DHT22;3210;48.708;9.030;2023-07-31T09:37:57;21.50;1.00
6355;DHT22;3210;48.708;9.030;2023-07-31T09:40:28;21.50;1.00
6355;DHT22;3210;48.708;9.030;2023-07-31T09:42:58;21.60;1.00
6355;DHT22;3210;48.708;9.030;2023-07-31T09:45:26;21.70;1.00
6355;DHT22;3210;48.708;9.030;2023-07-31T09:47:53;21.70;1.00
6355;DHT22;3210;48.708;9.030;2023-07-31T09:50:21;21.90;1.00
6355;DHT22;3210;48.708;9.030;2023-07-31T09:52:48;21.90;1.00
6355;DHT22;3210;48.708;9.030;2023-07-31T09:55:16;22.20;1.00
6355;DHT22;3210;48.708;9.030;2023-07-31T09:57:45;22.20;1.00
6355;DHT22;3210;48.708;9.030;2023-07-31T10:00:17;22.20;1.00
6355;DHT22;3210;48.708;9.030;2023-07-31T10:02:45;22.40;1.00
6355;DHT22;3210;48.708;9.030;2023-07-31T10:05:13;22.40;1.00
6355;DHT22;3210;48.708;9.030;2023-07-31T10:07:42;22.30;1.00
6355;DHT22;3210;48.708;9.030;2023-07-31T10:10:13;22.30;1.00
6355;DHT22;3210;48.708;9.030;2023-07-31T10:12:41;22.20;1.00
6355;DHT22;3210;48.708;9.030;2023-07-31T10:15:09;22.20;1.00
6355;DHT22;3210;48.708;9.030;2023-07-31T10:17:38;22.40;1.00
6355;DHT22;3210;48.708;9.030;2023-07-31T10:20:07;22.60;1.00
6355;DHT22;3210;48.708;9.030;2023-07-31T10:22:34;22.50;1.00
6355;DHT22;3210;48.708;9.030;2023-07-31T10:25:01;22.60;1.00
6355;DHT22;3210;48.708;9.030;2023-07-31T10:27:28;22.90;1.00
6355;DHT22;3210;48.708;9.030;2023-07-31T10:29:57;22.90;1.00
6355;DHT22;3210;48.708;9.030;2023-07-31T10:32:25;22.80;1.00
6355;DHT22;3210;48.708;9.030;2023-07-31T10:34:54;22.80;1.00
6355;DHT22;3210;48.708;9.030;2023-07-31T10:37:23;23.10;1.00
6355;DHT22;3210;48.708;9.030;2023-07-31T10:40:00;23.10;1.00
6355;DHT22;3210;48.708;9.030;2023-07-31T10:42:32;23.30;1.00
6355;DHT22;3210;48.708;9.030;2023-07-31T10:45:01;23.40;1.00
6355;DHT22;3210;48.708;9.030;2023-07-31T10:47:28;23.40;1.00
6355;DHT22;3210;48.708;9.030;2023-07-31T10:50:16;23.50;1.00
6355;DHT22;3210;48.708;9.030;2023-07-31T10:52:46;23.60;1.00
6355;DHT22;3210;48.708;9.030;2023-07-31T10:55:15;23.70;1.00
6355;DHT22;3210;48.708;9.030;2023-07-31T10:57:44;23.80;1.00
6355;DHT22;3210;48.708;9.030;2023-07-31T11:00:18;24.10;1.00
6355;DHT22;3210;48.708;9.030;2023-07-31T11:02:56;24.10;1.00
6355;DHT22;3210;48.708;9.030;2023-07-31T11:05:41;23.90;1.00
6355;DHT22;3210;48.708;9.030;2023-07-31T11:08:13;23.90;1.00
6355;DHT22;3210;48.708;9.030;2023-07-31T11:10:40;23.60;1.00
6355;DHT22;3210;48.708;9.030;2023-07-31T11:13:06;23.60;1.00
6355;DHT22;3210;48.708;9.030;2023-07-31T11:15:33;23.40;1.00
6355;DHT22;3210;48.708;9.030;2023-07-31T11:18:00;23.30;1.00
6355;DHT22;3210;48.708;9.030;2023-07-31T11:20:31;23.40;1.00
6355;DHT22;3210;48.708;9.030;2023-07-31T11:23:00;23.30;1.00
6355;DHT22;3210;48.708;9.030;2023-07-31T11:25:29;23.20;1.00
6355;DHT22;3210;48.708;9.030;2023-07-31T11:27:56;23.10;1.00
6355;DHT22;3210;48.708;9.030;2023-07-31T11:30:22;23.20;1.00
6355;DHT22;3210;48.708;9.030;2023-07-31T11:32:49;23.00;1.00
6355;DHT22;3210;48.708;9.030;2023-07-31T11:35:16;22.90;1.00
6355;DHT22;3210;48.708;9.030;2023-07-31T11:37:45;23.00;1.00
6355;DHT22;3210;48.708;9.030;2023-07-31T11:40:12;23.00;1.00
6355;DHT22;3210;48.708;9.030;2023-07-31T11:42:39;23.10;1.00
6355;DHT22;3210;48.708;9.030;2023-07-31T11:45:07;23.10;1.00
6355;DHT22;3210;48.708;9.030;2023-07-31T11:47:35;23.00;1.00
6355;DHT22;3210;48.708;9.030;2023-07-31T11:50:03;23.00;1.00
6355;DHT22;3210;48.708;9.030;2023-07-31T11:52:31;22.90;1.00
6355;DHT22;3210;48.708;9.030;2023-07-31T11:55:00;22.80;1.00
6355;DHT22;3210;48.708;9.030;2023-07-31T11:57:27;22.70;1.00
6355;DHT22;3210;48.708;9.030;2023-07-31T11:59:55;22.60;1.00
6355;DHT22;3210;48.708;9.030;2023-07-31T12:02:23;22.60;1.00
6355;DHT22;3210;48.708;9.030;2023-07-31T12:04:50;22.70;1.00
6355;DHT22;3210;48.708;9.030;2023-07-31T12:07:17;22.70;1.00
6355;DHT22;3210;48.708;9.030;2023-07-31T12:09:53;22.60;1.00
6355;DHT22;3210;48.708;9.030;2023-07-31T12:12:23;22.70;1.00
6355;DHT22;3210;48.708;9.030;2023-07-31T12:14:50;22.80;1.00
6355;DHT22;3210;48.708;9.030;2023-07-31T12:17:18;22.70;1.00
6355;DHT22;3210;48.708;9.030;2023-07-31T12:19:48;22.60;1.00
6355;DHT22;3210;48.708;9.030;2023-07-31T12:22:15;22.50;1.00
6355;DHT22;3210;48.708;9.030;2023-07-31T12:24:43;22.40;1.00
6355;DHT22;3210;48.708;9.030;2023-07-31T12:27:11;22.30;1.00
6355;DHT22;3210;48.708;9.030;2023-07-31T12:29:39;22.10;1.00
6355;DHT22;3210;48.708;9.030;2023-07-31T12:32:19;22.00;1.00
6355;DHT22;3210;48.708;9.030;2023-07-31T12:34:46;21.90;1.00
6355;DHT22;3210;48.708;9.030;2023-07-31T12:37:13;21.70;1.00
6355;DHT22;3210;48.708;9.030;2023-07-31T12:39:40;21.80;1.00
6355;DHT22;3210;48.708;9.030;2023-07-31T12:42:07;21.90;1.00
6355;DHT22;3210;48.708;9.030;2023-07-31T12:44:33;22.00;1.00
6355;DHT22;3210;48.708;9.030;2023-07-31T12:47:02;22.20;1.00
6355;DHT22;3210;48.708;9.030;2023-07-31T12:49:29;22.30;1.00
6355;DHT22;3210;48.708;9.030;2023-07-31T12:51:56;22.40;1.00
6355;DHT22;3210;48.708;9.030;2023-07-31T12:54:23;22.60;1.00
6355;DHT22;3210;48.708;9.030;2023-07-31T12:56:49;22.90;1.00
6355;DHT22;3210;48.708;9.030;2023-07-31T12:59:16;23.00;1.00
6355;DHT22;3210;48.708;9.030;2023-07-31T13:01:43;23.10;1.00
6355;DHT22;3210;48.708;9.030;2023-07-31T13:04:11;23.10;1.00
6355;DHT22;3210;48.708;9.030;2023-07-31T13:06:38;23.40;1.00
6355;DHT22;3210;48.708;9.030;2023-07-31T13:09:04;23.80;1.00
6355;DHT22;3210;48.708;9.030;2023-07-31T13:11:31;23.90;1.00
6355;DHT22;3210;48.708;9.030;2023-07-31T13:13:58;23.90;1.00
6355;DHT22;3210;48.708;9.030;2023-07-31T13:16:25;23.90;1.00
6355;DHT22;3210;48.708;9.030;2023-07-31T13:18:52;23.80;1.00
6355;DHT22;3210;48.708;9.030;2023-07-31T13:21:20;23.90;1.00
6355;DHT22;3210;48.708;9.030;2023-07-31T13:23:48;23.90;1.00
6355;DHT22;3210;48.708;9.030;2023-07-31T13:26:14;23.90;1.00
6355;DHT22;3210;48.708;9.030;2023-07-31T13:28:41;23.90;1.00
6355;DHT22;3210;48.708;9.030;2023-07-31T13:31:08;23.80;1.00
6355;DHT22;3210;48.708;9.030;2023-07-31T13:33:36;23.80;1.00
6355;DHT22;3210;48.708;9.030;2023-07-31T13:36:03;23.80;1.00
6355;DHT22;3210;48.708;9.030;2023-07-31T13:38:31;23.80;1.00
6355;DHT22;3210;48.708;9.030;2023-07-31T13:40:58;23.80;1.00
6355;DHT22;3210;48.708;9.030;2023-07-31T13:43:25;23.80;1.00
6355;DHT22;3210;48.708;9.030;2023-07-31T13:45:52;23.80;1.00
6355;DHT22;3210;48.708;9.030;2023-07-31T13:48:19;23.60;1.00
6355;DHT22;3210;48.708;9.030;2023-07-31T13:50:45;23.50;1.00
6355;DHT22;3210;48.708;9.030;2023-07-31T13:53:12;23.40;1.00
6355;DHT22;3210;48.708;9.030;2023-07-31T13:55:40;23.50;1.00
6355;DHT22;3210;48.708;9.030;2023-07-31T13:58:10;23.60;1.00
6355;DHT22;3210;48.708;9.030;2023-07-31T14:00:37;23.60;1.00
6355;DHT22;3210;48.708;9.030;2023-07-31T14:03:04;23.50;1.00
6355;DHT22;3210;48.708;9.030;2023-07-31T14:05:31;23.50;1.00
6355;DHT22;3210;48.708;9.030;2023-07-31T14:07:57;23.40;1.00
6355;DHT22;3210;48.708;9.030;2023-07-31T14:10:24;23.60;1.00
6355;DHT22;3210;48.708;9.030;2023-07-31T14:12:52;23.50;1.00
6355;DHT22;3210;48.708;9.030;2023-07-31T14:15:19;23.40;1.00
6355;DHT22;3210;48.708;9.030;2023-07-31T14:17:46;23.30;1.00
6355;DHT22;3210;48.708;9.030;2023-07-31T14:20:13;23.20;1.00
6355;DHT22;3210;48.708;9.030;2023-07-31T14:22:39;23.10;1.00
6355;DHT22;3210;48.708;9.030;2023-07-31T14:25:07;23.00;1.00
6355;DHT22;3210;48.708;9.030;2023-07-31T14:27:35;22.90;1.00
6355;DHT22;3210;48.708;9.030;2023-07-31T14:30:04;23.00;1.00
6355;DHT22;3210;48.708;9.030;2023-07-31T14:32:31;23.10;1.00
6355;DHT22;3210;48.708;9.030;2023-07-31T14:34:58;23.10;1.00
6355;DHT22;3210;48.708;9.030;2023-07-31T14:37:26;23.10;1.00
6355;DHT22;3210;48.708;9.030;2023-07-31T14:39:54;23.00;1.00
6355;DHT22;3210;48.708;9.030;2023-07-31T14:42:21;23.10;1.00
6355;DHT22;3210;48.708;9.030;2023-07-31T14:44:48;23.10;1.00
6355;DHT22;3210;48.708;9.030;2023-07-31T14:47:16;23.10;1.00
6355;DHT22;3210;48.708;9.030;2023-07-31T14:49:43;23.10;1.00
6355;DHT22;3210;48.708;9.030;2023-07-31T14:52:10;23.20;1.00
6355;DHT22;3210;48.708;9.030;2023-07-31T14:54:36;23.00;1.00
6355;DHT22;3210;48.708;9.030;2023-07-31T14:57:04;23.10;1.00
6355;DHT22;3210;48.708;9.030;2023-07-31T14:59:31;23.00;1.00
6355;DHT22;3210;48.708;9.030;2023-07-31T15:01:57;23.00;1.00
6355;DHT22;3210;48.708;9.030;2023-07-31T15:04:25;23.10;1.00
6355;DHT22;3210;48.708;9.030;2023-07-31T15:06:52;23.00;1.00
6355;DHT22;3210;48.708;9.030;2023-07-31T15:09:19;22.90;1.00
6355;DHT22;3210;48.708;9.030;2023-07-31T15:11:46;22.80;1.00
6355;DHT22;3210;48.708;9.030;2023-07-31T15:14:13;22.70;1.00
6355;DHT22;3210;48.708;9.030;2023-07-31T15:16:39;22.60;1.00
6355;DHT22;3210;48.708;9.030;2023-07-31T15:19:06;22.50;1.00
6355;DHT22;3210;48.708;9.030;2023-07-31T15:21:34;22.50;1.00
6355;DHT22;3210;48.708;9.030;2023-07-31T15:24:01;22.50;1.00
6355;DHT22;3210;48.708;9.030;2023-07-31T15:26:28;22.60;1.00
6355;DHT22;3210;48.708;9.030;2023-07-31T15:29:00;22.80;1.00
6355;DHT22;3210;48.708;9.030;2023-07-31T15:31:28;22.90;1.00
6355;DHT22;3210;48.708;9.030;2023-07-31T15:33:54;22.90;1.00
6355;DHT22;3210;48.708;9.030;2023-07-31T15:36:21;23.00;1.00
6355;DHT22;3210;48.708;9.030;2023-07-31T15:38:49;23.10;1.00
6355;DHT22;3210;48.708;9.030;2023-07-31T15:41:17;23.10;1.00
6355;DHT22;3210;48.708;9.030;2023-07-31T15:43:44;23.30;1.00
6355;DHT22;3210;48.708;9.030;2023-07-31T15:46:11;23.30;1.00
6355;DHT22;3210;48.708;9.030;2023-07-31T15:48:38;23.40;1.00
6355;DHT22;3210;48.708;9.030;2023-07-31T15:51:05;23.40;1.00
6355;DHT22;3210;48.708;9.030;2023-07-31T15:53:32;23.40;1.00
6355;DHT22;3210;48.708;9.030;2023-07-31T15:56:00;23.30;1.00
6355;DHT22;3210;48.708;9.030;2023-07-31T15:58:27;23.40;1.00
6355;DHT22;3210;48.708;9.030;2023-07-31T16:00:54;23.40;1.00
6355;DHT22;3210;48.708;9.030;2023-07-31T16:03:21;23.50;1.00
6355;DHT22;3210;48.708;9.030;2023-07-31T16:05:47;23.70;1.00
6355;DHT22;3210;48.708;9.030;2023-07-31T16:08:14;23.80;1.00
6355;DHT22;3210;48.708;9.030;2023-07-31T16:10:41;23.70;1.00
6355;DHT22;3210;48.708;9.030;2023-07-31T16:13:09;23.70;1.00
6355;DHT22;3210;48.708;9.030;2023-07-31T16:15:36;23.60;1.00
6355;DHT22;3210;48.708;9.030;2023-07-31T16:18:03;23.60;1.00
6355;DHT22;3210;48.708;9.030;2023-07-31T16:20:30;23.40;1.00